CheckWX is a tool to help pilots better visualize weather data.  It is not intended as a substitute for an official pre-flight weather briefing.

04:59:06 UTC

EIDW METAR
Dublin Airport
Dublin, Ireland
Current

29 mins ago

EIDW 140430Z 23011KT 190V270 9999 FEW018 03/M00 Q0982 NOSIG
Observed
Dec-14 @ 04:30 UTC
Wind
  • 230° at 11 KTS
Visibility
10,000+ meters
Flight Rules
VFR
Cloud Levels
  • Few at 1,800' AGL
Temperature
C / 37°F
Dewpoint
C / 32°F
Humidity
81%
Altimeter
29" Hg
Pressure
981.92 hPa
Previous

59 mins ago

EIDW 140400Z 24010KT 190V280 9999 FEW018 03/M00 Q0982 NOSIG
Observed
Dec-14 @ 04:00 UTC
Wind
  • 240° at 10 KTS
Visibility
10,000+ meters
Flight Rules
VFR
Cloud Levels
  • Few at 1,800' AGL
Temperature
C / 37°F
Dewpoint
C / 32°F
Humidity
81%
Altimeter
29" Hg
Pressure
981.92 hPa
Previous

1 hour ago

EIDW 140330Z 25013G23KT 200V280 9999 FEW018 03/M01 Q0982 NOSIG
Observed
Dec-14 @ 03:30 UTC
Wind
  • 250° at 13 KTS
  • Gusting to 23 KTS
Visibility
10,000+ meters
Flight Rules
VFR
Cloud Levels
  • Few at 1,800' AGL
Temperature
C / 37°F
Dewpoint
-1°C / 30°F
Humidity
75%
Altimeter
29" Hg
Pressure
981.92 hPa